KSAN/SAN METAR and TAF weather

Enter ICAO airport designator
Station Type Date Time Source
KSAN METAR 2020/04/03 23:51 UTC NOAA

KSAN 032351Z 21005KT 10SM FEW023 18/11 A2992 RMK AO2 SLP132 T01830106 10194 20178 58014


Station Type Date Time Source
KSAN Decoded METAR 2020/04/03 23:51 UTC NOAA

SAN DIEGO INTERNATIONAL \LINDBERGH FLD, CA, United States (KSAN) 32-44N 117-11W 12M
Apr 03, 2020 - 07:51 PM EDT / 2020.04.03 2351 UTC
Wind: from the SSW (210 degrees) at 6 MPH (5 KT):0
Visibility: 10 mile(s):0
Sky conditions: mostly clear
Temperature: 64.9 F (18.3 C)
Dew Point: 51.1 F (10.6 C)
Relative Humidity: 60%
Pressure (altimeter): 29.92 in. Hg (1013 hPa)
Pressure tendency: 0.04 inches (1.4 hPa) lower than three hours ago
ob: KSAN 032351Z 21005KT 10SM FEW023 18/11 A2992 RMK AO2 SLP132 T01830106 10194 20178 58014
cycle: 0

Station Type Date Time Source
KSAN TAF 2020/04/03 21:33 UTC NOAA

TAF
AMD KSAN 032031Z 0321/0424 22010KT P6SM FEW035 FEW200
FM040200 VRB05KT P6SM FEW035
FM040900 19007KT P6SM BKN020
FM041800 18009KT P6SM SCT025

Example: see airport list